sensor_id;sensor_type;location;lat;lon;timestamp;pressure;altitude;pressure_sealevel;temperature;humidity
2401;BME280;1211;43.200;27.914;2023-04-05T00:00:42;100422.38;;;7.69;nan
2401;BME280;1211;43.200;27.914;2023-04-05T00:03:10;100424.16;;;7.65;nan
2401;BME280;1211;43.200;27.914;2023-04-05T00:05:37;100433.25;;;7.82;nan
2401;BME280;1211;43.200;27.914;2023-04-05T00:08:04;100427.34;;;7.67;nan
2401;BME280;1211;43.200;27.914;2023-04-05T00:10:32;100424.38;;;7.46;nan
2401;BME280;1211;43.200;27.914;2023-04-05T00:12:59;100438.69;;;7.74;nan
2401;BME280;1211;43.200;27.914;2023-04-05T00:15:26;100427.88;;;7.69;nan
2401;BME280;1211;43.200;27.914;2023-04-05T00:17:53;100412.19;;;7.61;nan
2401;BME280;1211;43.200;27.914;2023-04-05T00:20:22;100422.38;;;7.69;nan
2401;BME280;1211;43.200;27.914;2023-04-05T00:22:48;100430.81;;;7.50;nan
2401;BME280;1211;43.200;27.914;2023-04-05T00:25:15;100449.94;;;7.64;nan
2401;BME280;1211;43.200;27.914;2023-04-05T00:27:42;100442.00;;;7.62;nan
2401;BME280;1211;43.200;27.914;2023-04-05T00:30:09;100439.72;;;7.56;nan
2401;BME280;1211;43.200;27.914;2023-04-05T00:32:36;100454.16;;;7.70;nan
2401;BME280;1211;43.200;27.914;2023-04-05T00:35:03;100437.94;;;7.82;nan
2401;BME280;1211;43.200;27.914;2023-04-05T00:37:31;100450.47;;;7.74;nan
2401;BME280;1211;43.200;27.914;2023-04-05T00:39:58;100430.53;;;7.52;nan
2401;BME280;1211;43.200;27.914;2023-04-05T00:42:24;100456.28;;;7.51;nan
2401;BME280;1211;43.200;27.914;2023-04-05T00:44:51;100446.38;;;7.94;nan
2401;BME280;1211;43.200;27.914;2023-04-05T00:47:18;100456.38;;;7.68;nan
2401;BME280;1211;43.200;27.914;2023-04-05T00:49:44;100440.63;;;7.42;nan
2401;BME280;1211;43.200;27.914;2023-04-05T00:52:11;100457.88;;;7.74;nan
2401;BME280;1211;43.200;27.914;2023-04-05T00:54:40;100453.69;;;7.45;nan
2401;BME280;1211;43.200;27.914;2023-04-05T00:57:07;100454.56;;;7.32;nan
2401;BME280;1211;43.200;27.914;2023-04-05T00:59:34;100453.41;;;7.56;nan
2401;BME280;1211;43.200;27.914;2023-04-05T01:02:02;100462.84;;;7.41;nan
2401;BME280;1211;43.200;27.914;2023-04-05T01:04:31;100451.66;;;7.29;nan
2401;BME280;1211;43.200;27.914;2023-04-05T01:07:03;100452.91;;;7.23;nan
2401;BME280;1211;43.200;27.914;2023-04-05T01:09:35;100459.63;;;7.39;nan
2401;BME280;1211;43.200;27.914;2023-04-05T01:12:05;100442.06;;;7.40;nan
2401;BME280;1211;43.200;27.914;2023-04-05T01:14:41;100434.22;;;7.47;nan
2401;BME280;1211;43.200;27.914;2023-04-05T01:17:08;100454.84;;;7.84;nan
2401;BME280;1211;43.200;27.914;2023-04-05T01:19:35;100453.56;;;7.51;nan
2401;BME280;1211;43.200;27.914;2023-04-05T01:22:10;100452.44;;;7.52;nan
2401;BME280;1211;43.200;27.914;2023-04-05T01:24:50;100459.81;;;7.42;nan
2401;BME280;1211;43.200;27.914;2023-04-05T01:27:23;100471.56;;;7.65;nan
2401;BME280;1211;43.200;27.914;2023-04-05T01:29:59;100467.50;;;7.63;nan
2401;BME280;1211;43.200;27.914;2023-04-05T01:35:15;100466.75;;;7.79;nan
2401;BME280;1211;43.200;27.914;2023-04-05T01:37:44;100473.47;;;7.65;nan
2401;BME280;1211;43.200;27.914;2023-04-05T01:40:14;100464.59;;;7.59;nan
2401;BME280;1211;43.200;27.914;2023-04-05T01:42:42;100462.22;;;7.44;nan
2401;BME280;1211;43.200;27.914;2023-04-05T01:45:10;100473.28;;;7.61;nan
2401;BME280;1211;43.200;27.914;2023-04-05T01:47:37;100470.72;;;7.12;nan
2401;BME280;1211;43.200;27.914;2023-04-05T01:50:05;100466.06;;;7.43;nan
2401;BME280;1211;43.200;27.914;2023-04-05T01:52:32;100486.38;;;7.64;nan
2401;BME280;1211;43.200;27.914;2023-04-05T01:54:58;100474.50;;;7.24;nan
2401;BME280;1211;43.200;27.914;2023-04-05T01:57:27;100473.69;;;7.24;nan
2401;BME280;1211;43.200;27.914;2023-04-05T01:59:54;100481.09;;;7.45;nan
2401;BME280;1211;43.200;27.914;2023-04-05T02:02:22;100474.41;;;7.60;nan
2401;BME280;1211;43.200;27.914;2023-04-05T02:04:48;100454.47;;;7.15;nan
2401;BME280;1211;43.200;27.914;2023-04-05T02:07:15;100481.50;;;7.08;nan
2401;BME280;1211;43.200;27.914;2023-04-05T02:09:42;100480.84;;;7.11;nan
2401;BME280;1211;43.200;27.914;2023-04-05T02:12:08;100487.94;;;7.57;nan
2401;BME280;1211;43.200;27.914;2023-04-05T02:14:35;100475.31;;;7.47;nan
2401;BME280;1211;43.200;27.914;2023-04-05T02:17:02;100484.03;;;7.27;nan
2401;BME280;1211;43.200;27.914;2023-04-05T02:19:30;100494.75;;;7.37;nan
2401;BME280;1211;43.200;27.914;2023-04-05T02:22:05;100481.09;;;7.45;nan
2401;BME280;1211;43.200;27.914;2023-04-05T02:24:32;100492.63;;;7.34;nan
2401;BME280;1211;43.200;27.914;2023-04-05T02:26:58;100486.28;;;7.25;nan
2401;BME280;1211;43.200;27.914;2023-04-05T02:29:25;100487.13;;;7.34;nan
2401;BME280;1211;43.200;27.914;2023-04-05T02:31:52;100493.97;;;7.45;nan
2401;BME280;1211;43.200;27.914;2023-04-05T02:34:18;100491.19;;;7.36;nan
2401;BME280;1211;43.200;27.914;2023-04-05T02:36:48;100490.81;;;7.29;nan
2401;BME280;1211;43.200;27.914;2023-04-05T02:39:15;100492.78;;;7.15;nan
2401;BME280;1211;43.200;27.914;2023-04-05T02:41:42;100493.69;;;7.02;nan
2401;BME280;1211;43.200;27.914;2023-04-05T02:44:09;100504.81;;;7.06;nan
2401;BME280;1211;43.200;27.914;2023-04-05T02:46:35;100500.06;;;6.97;nan
2401;BME280;1211;43.200;27.914;2023-04-05T02:49:02;100511.59;;;7.08;nan
2401;BME280;1211;43.200;27.914;2023-04-05T02:51:29;100511.34;;;7.40;nan
2401;BME280;1211;43.200;27.914;2023-04-05T02:54:00;100508.78;;;7.22;nan
2401;BME280;1211;43.200;27.914;2023-04-05T02:56:26;100520.53;;;7.36;nan
2401;BME280;1211;43.200;27.914;2023-04-05T02:58:54;100502.25;;;7.09;nan
2401;BME280;1211;43.200;27.914;2023-04-05T03:01:23;100516.34;;;7.38;nan
2401;BME280;1211;43.200;27.914;2023-04-05T03:03:50;100511.50;;;7.35;nan
2401;BME280;1211;43.200;27.914;2023-04-05T03:06:17;100499.78;;;7.21;nan
2401;BME280;1211;43.200;27.914;2023-04-05T03:08:44;100503.00;;;7.45;nan
2401;BME280;1211;43.200;27.914;2023-04-05T03:11:14;100516.78;;;7.54;nan
2401;BME280;1211;43.200;27.914;2023-04-05T03:13:41;100510.84;;;7.61;nan
2401;BME280;1211;43.200;27.914;2023-04-05T03:16:08;100507.50;;;7.41;nan
2401;BME280;1211;43.200;27.914;2023-04-05T03:18:34;100525.03;;;7.63;nan
2401;BME280;1211;43.200;27.914;2023-04-05T03:21:01;100523.84;;;7.55;nan
2401;BME280;1211;43.200;27.914;2023-04-05T03:23:28;100505.44;;;7.25;nan
2401;BME280;1211;43.200;27.914;2023-04-05T03:25:57;100519.97;;;7.25;nan
2401;BME280;1211;43.200;27.914;2023-04-05T03:28:25;100522.78;;;7.20;nan
2401;BME280;1211;43.200;27.914;2023-04-05T03:30:52;100520.66;;;7.31;nan
2401;BME280;1211;43.200;27.914;2023-04-05T03:33:19;100532.53;;;7.49;nan
2401;BME280;1211;43.200;27.914;2023-04-05T03:35:46;100553.13;;;7.24;nan
2401;BME280;1211;43.200;27.914;2023-04-05T03:38:15;100537.25;;;7.34;nan
2401;BME280;1211;43.200;27.914;2023-04-05T03:40:42;100538.25;;;7.61;nan
2401;BME280;1211;43.200;27.914;2023-04-05T03:43:09;100548.38;;;7.38;nan
2401;BME280;1211;43.200;27.914;2023-04-05T03:45:37;100542.72;;;7.57;nan
2401;BME280;1211;43.200;27.914;2023-04-05T03:48:04;100535.50;;;7.61;nan
2401;BME280;1211;43.200;27.914;2023-04-05T03:50:30;100558.22;;;7.61;nan
2401;BME280;1211;43.200;27.914;2023-04-05T03:52:57;100554.75;;;7.25;nan
2401;BME280;1211;43.200;27.914;2023-04-05T03:55:24;100547.28;;;7.39;nan
2401;BME280;1211;43.200;27.914;2023-04-05T03:57:51;100553.66;;;7.48;nan
2401;BME280;1211;43.200;27.914;2023-04-05T04:00:18;100553.53;;;7.53;nan
2401;BME280;1211;43.200;27.914;2023-04-05T04:02:46;100566.31;;;7.44;nan
2401;BME280;1211;43.200;27.914;2023-04-05T04:05:13;100561.78;;;7.62;nan
2401;BME280;1211;43.200;27.914;2023-04-05T04:07:41;100544.41;;;7.44;nan
2401;BME280;1211;43.200;27.914;2023-04-05T04:10:08;100560.53;;;7.68;nan
2401;BME280;1211;43.200;27.914;2023-04-05T04:12:35;100556.44;;;7.57;nan
2401;BME280;1211;43.200;27.914;2023-04-05T04:15:02;100574.97;;;7.37;nan
2401;BME280;1211;43.200;27.914;2023-04-05T04:17:30;100566.03;;;7.45;nan
2401;BME280;1211;43.200;27.914;2023-04-05T04:19:58;100571.31;;;7.64;nan
2401;BME280;1211;43.200;27.914;2023-04-05T04:22:25;100581.66;;;7.45;nan
2401;BME280;1211;43.200;27.914;2023-04-05T04:24:57;100571.69;;;7.49;nan
2401;BME280;1211;43.200;27.914;2023-04-05T04:27:27;100573.03;;;7.38;nan
2401;BME280;1211;43.200;27.914;2023-04-05T04:29:53;100573.31;;;7.14;nan
2401;BME280;1211;43.200;27.914;2023-04-05T04:32:25;100580.72;;;7.72;nan
2401;BME280;1211;43.200;27.914;2023-04-05T04:35:13;100583.97;;;7.52;nan
2401;BME280;1211;43.200;27.914;2023-04-05T04:37:42;100587.47;;;7.66;nan
2401;BME280;1211;43.200;27.914;2023-04-05T04:40:11;100590.81;;;7.63;nan
2401;BME280;1211;43.200;27.914;2023-04-05T04:42:41;100582.63;;;7.27;nan
2401;BME280;1211;43.200;27.914;2023-04-05T04:45:10;100591.31;;;7.42;nan
2401;BME280;1211;43.200;27.914;2023-04-05T04:47:37;100600.50;;;7.24;nan
2401;BME280;1211;43.200;27.914;2023-04-05T04:50:05;100592.81;;;7.71;nan
2401;BME280;1211;43.200;27.914;2023-04-05T04:52:34;100587.09;;;7.23;nan
2401;BME280;1211;43.200;27.914;2023-04-05T04:55:00;100590.53;;;7.28;nan
2401;BME280;1211;43.200;27.914;2023-04-05T04:57:28;100586.56;;;7.57;nan
2401;BME280;1211;43.200;27.914;2023-04-05T04:59:55;100580.06;;;6.94;nan
2401;BME280;1211;43.200;27.914;2023-04-05T05:02:22;100594.50;;;6.59;nan
2401;BME280;1211;43.200;27.914;2023-04-05T05:04:48;100593.94;;;7.48;nan
2401;BME280;1211;43.200;27.914;2023-04-05T05:07:15;100598.72;;;7.06;nan
2401;BME280;1211;43.200;27.914;2023-04-05T05:09:44;100581.53;;;6.65;nan
2401;BME280;1211;43.200;27.914;2023-04-05T05:12:11;100594.66;;;7.03;nan
2401;BME280;1211;43.200;27.914;2023-04-05T05:14:38;100599.16;;;7.35;nan
2401;BME280;1211;43.200;27.914;2023-04-05T05:17:05;100602.91;;;7.26;nan
2401;BME280;1211;43.200;27.914;2023-04-05T05:19:32;100635.22;;;6.47;nan
2401;BME280;1211;43.200;27.914;2023-04-05T05:21:59;100601.69;;;6.41;nan
2401;BME280;1211;43.200;27.914;2023-04-05T05:24:26;100592.88;;;6.72;nan
2401;BME280;1211;43.200;27.914;2023-04-05T05:26:54;100606.06;;;7.55;nan
2401;BME280;1211;43.200;27.914;2023-04-05T05:29:20;100607.28;;;6.91;nan
2401;BME280;1211;43.200;27.914;2023-04-05T05:31:47;100610.13;;;7.58;nan
2401;BME280;1211;43.200;27.914;2023-04-05T05:34:14;100611.13;;;7.26;nan
2401;BME280;1211;43.200;27.914;2023-04-05T05:36:41;100616.53;;;7.17;nan
2401;BME280;1211;43.200;27.914;2023-04-05T05:39:08;100618.59;;;7.70;nan
2401;BME280;1211;43.200;27.914;2023-04-05T05:41:34;100609.19;;;7.62;nan
2401;BME280;1211;43.200;27.914;2023-04-05T05:44:02;100618.59;;;7.70;nan
2401;BME280;1211;43.200;27.914;2023-04-05T05:46:29;100613.25;;;7.29;nan
2401;BME280;1211;43.200;27.914;2023-04-05T05:48:56;100626.00;;;7.92;nan
2401;BME280;1211;43.200;27.914;2023-04-05T05:51:23;100622.84;;;7.76;nan
2401;BME280;1211;43.200;27.914;2023-04-05T05:53:50;100625.41;;;7.95;nan
2401;BME280;1211;43.200;27.914;2023-04-05T05:56:16;100636.38;;;7.95;nan
2401;BME280;1211;43.200;27.914;2023-04-05T05:58:43;100632.38;;;7.78;nan
2401;BME280;1211;43.200;27.914;2023-04-05T06:01:17;100623.34;;;8.00;nan
2401;BME280;1211;43.200;27.914;2023-04-05T06:03:47;100629.88;;;7.91;nan
2401;BME280;1211;43.200;27.914;2023-04-05T06:06:14;100623.41;;;7.86;nan
2401;BME280;1211;43.200;27.914;2023-04-05T06:08:41;100633.16;;;8.23;nan
2401;BME280;1211;43.200;27.914;2023-04-05T06:11:15;100636.53;;;8.20;nan
2401;BME280;1211;43.200;27.914;2023-04-05T06:13:41;100643.75;;;7.72;nan
2401;BME280;1211;43.200;27.914;2023-04-05T06:16:08;100649.38;;;8.11;nan
2401;BME280;1211;43.200;27.914;2023-04-05T06:18:36;100652.34;;;8.46;nan
2401;BME280;1211;43.200;27.914;2023-04-05T06:21:03;100664.25;;;8.72;nan
2401;BME280;1211;43.200;27.914;2023-04-05T06:23:30;100656.22;;;8.45;nan
2401;BME280;1211;43.200;27.914;2023-04-05T06:25:57;100663.72;;;8.08;nan
2401;BME280;1211;43.200;27.914;2023-04-05T06:28:23;100664.09;;;8.38;nan
2401;BME280;1211;43.200;27.914;2023-04-05T06:30:50;100663.47;;;8.41;nan
2401;BME280;1211;43.200;27.914;2023-04-05T06:33:17;100674.56;;;8.66;nan
2401;BME280;1211;43.200;27.914;2023-04-05T06:35:45;100681.16;;;8.57;nan
2401;BME280;1211;43.200;27.914;2023-04-05T06:38:12;100678.66;;;8.78;nan
2401;BME280;1211;43.200;27.914;2023-04-05T06:40:38;100680.84;;;8.98;nan
2401;BME280;1211;43.200;27.914;2023-04-05T06:43:05;100677.00;;;8.68;nan
2401;BME280;1211;43.200;27.914;2023-04-05T06:45:32;100675.56;;;9.27;nan
2401;BME280;1211;43.200;27.914;2023-04-05T06:47:58;100686.69;;;9.14;nan
2401;BME280;1211;43.200;27.914;2023-04-05T06:50:25;100680.53;;;9.08;nan
2401;BME280;1211;43.200;27.914;2023-04-05T06:52:53;100687.03;;;9.21;nan
2401;BME280;1211;43.200;27.914;2023-04-05T06:55:20;100689.75;;;9.03;nan
2401;BME280;1211;43.200;27.914;2023-04-05T06:57:47;100701.94;;;9.37;nan
2401;BME280;1211;43.200;27.914;2023-04-05T07:00:14;100705.78;;;9.27;nan
2401;BME280;1211;43.200;27.914;2023-04-05T07:02:41;100707.34;;;9.76;nan
2401;BME280;1211;43.200;27.914;2023-04-05T07:05:08;100708.69;;;9.22;nan
2401;BME280;1211;43.200;27.914;2023-04-05T07:07:37;100708.78;;;9.74;nan
2401;BME280;1211;43.200;27.914;2023-04-05T07:10:06;100708.97;;;9.95;nan
2401;BME280;1211;43.200;27.914;2023-04-05T07:12:33;100717.38;;;10.07;nan
2401;BME280;1211;43.200;27.914;2023-04-05T07:14:59;100719.91;;;9.43;nan
2401;BME280;1211;43.200;27.914;2023-04-05T07:17:26;100719.47;;;9.92;nan
2401;BME280;1211;43.200;27.914;2023-04-05T07:19:53;100730.56;;;9.44;nan
2401;BME280;1211;43.200;27.914;2023-04-05T07:22:19;100720.06;;;9.46;nan
2401;BME280;1211;43.200;27.914;2023-04-05T07:24:46;100733.03;;;9.63;nan
2401;BME280;1211;43.200;27.914;2023-04-05T07:27:14;100731.94;;;10.16;nan
2401;BME280;1211;43.200;27.914;2023-04-05T07:29:41;100717.22;;;9.77;nan
2401;BME280;1211;43.200;27.914;2023-04-05T07:32:08;100738.25;;;9.99;nan
2401;BME280;1211;43.200;27.914;2023-04-05T07:34:35;100737.91;;;9.92;nan
2401;BME280;1211;43.200;27.914;2023-04-05T07:37:03;100739.91;;;10.17;nan
2401;BME280;1211;43.200;27.914;2023-04-05T07:39:30;100736.16;;;10.05;nan
2401;BME280;1211;43.200;27.914;2023-04-05T07:41:57;100734.06;;;10.02;nan
2401;BME280;1211;43.200;27.914;2023-04-05T07:44:25;100728.56;;;10.27;nan
2401;BME280;1211;43.200;27.914;2023-04-05T07:46:52;100731.88;;;10.67;nan
2401;BME280;1211;43.200;27.914;2023-04-05T07:49:22;100726.69;;;10.74;nan
2401;BME280;1211;43.200;27.914;2023-04-05T07:51:49;100722.66;;;11.10;nan
2401;BME280;1211;43.200;27.914;2023-04-05T07:54:19;100729.00;;;11.10;nan
2401;BME280;1211;43.200;27.914;2023-04-05T07:56:45;100727.41;;;11.60;nan
2401;BME280;1211;43.200;27.914;2023-04-05T07:59:13;100722.72;;;11.31;nan
2401;BME280;1211;43.200;27.914;2023-04-05T08:01:41;100730.56;;;11.49;nan
2401;BME280;1211;43.200;27.914;2023-04-05T08:04:08;100718.94;;;11.65;nan
2401;BME280;1211;43.200;27.914;2023-04-05T08:06:35;100720.94;;;11.85;nan
2401;BME280;1211;43.200;27.914;2023-04-05T08:09:02;100715.69;;;11.92;nan
2401;BME280;1211;43.200;27.914;2023-04-05T08:11:29;100727.13;;;11.82;nan
2401;BME280;1211;43.200;27.914;2023-04-05T08:13:57;100722.81;;;11.64;nan
2401;BME280;1211;43.200;27.914;2023-04-05T08:16:24;100730.75;;;11.74;nan
2401;BME280;1211;43.200;27.914;2023-04-05T08:18:52;100731.38;;;12.54;nan
2401;BME280;1211;43.200;27.914;2023-04-05T08:21:18;100737.09;;;12.94;nan
2401;BME280;1211;43.200;27.914;2023-04-05T08:23:45;100734.59;;;13.01;nan
2401;BME280;1211;43.200;27.914;2023-04-05T08:26:13;100721.34;;;12.61;nan
2401;BME280;1211;43.200;27.914;2023-04-05T08:28:40;100736.16;;;13.02;nan
2401;BME280;1211;43.200;27.914;2023-04-05T08:31:06;100737.03;;;13.14;nan
2401;BME280;1211;43.200;27.914;2023-04-05T08:33:33;100746.00;;;13.60;nan
2401;BME280;1211;43.200;27.914;2023-04-05T08:36:04;100743.97;;;13.33;nan
2401;BME280;1211;43.200;27.914;2023-04-05T08:38:31;100738.59;;;13.03;nan
2401;BME280;1211;43.200;27.914;2023-04-05T08:40:57;100748.47;;;13.13;nan
2401;BME280;1211;43.200;27.914;2023-04-05T08:43:32;100748.44;;;13.37;nan
2401;BME280;1211;43.200;27.914;2023-04-05T08:45:59;100744.88;;;13.49;nan
2401;BME280;1211;43.200;27.914;2023-04-05T08:48:26;100748.28;;;13.09;nan
2401;BME280;1211;43.200;27.914;2023-04-05T08:50:53;100739.25;;;12.76;nan
2401;BME280;1211;43.200;27.914;2023-04-05T08:53:22;100737.94;;;13.06;nan
2401;BME280;1211;43.200;27.914;2023-04-05T08:55:49;100755.34;;;13.68;nan
2401;BME280;1211;43.200;27.914;2023-04-05T08:58:16;100754.69;;;13.34;nan
2401;BME280;1211;43.200;27.914;2023-04-05T09:00:44;100748.00;;;13.23;nan
2401;BME280;1211;43.200;27.914;2023-04-05T09:03:12;100760.91;;;13.55;nan
2401;BME280;1211;43.200;27.914;2023-04-05T09:05:40;100772.34;;;14.06;nan
2401;BME280;1211;43.200;27.914;2023-04-05T09:08:10;100758.03;;;13.64;nan
2401;BME280;1211;43.200;27.914;2023-04-05T09:10:38;100759.81;;;13.11;nan
2401;BME280;1211;43.200;27.914;2023-04-05T09:13:05;100765.63;;;13.31;nan
2401;BME280;1211;43.200;27.914;2023-04-05T09:15:33;100765.25;;;13.20;nan
2401;BME280;1211;43.200;27.914;2023-04-05T09:18:00;100760.16;;;13.10;nan
2401;BME280;1211;43.200;27.914;2023-04-05T09:20:27;100774.91;;;12.69;nan
2401;BME280;1211;43.200;27.914;2023-04-05T09:22:54;100766.41;;;12.74;nan
2401;BME280;1211;43.200;27.914;2023-04-05T09:25:34;100757.94;;;12.91;nan
2401;BME280;1211;43.200;27.914;2023-04-05T09:28:04;100778.50;;;13.14;nan
2401;BME280;1211;43.200;27.914;2023-04-05T09:30:31;100777.50;;;12.86;nan
2401;BME280;1211;43.200;27.914;2023-04-05T09:32:58;100785.72;;;12.95;nan
2401;BME280;1211;43.200;27.914;2023-04-05T09:35:26;100778.06;;;12.79;nan
2401;BME280;1211;43.200;27.914;2023-04-05T09:37:53;100777.84;;;12.52;nan
2401;BME280;1211;43.200;27.914;2023-04-05T09:40:20;100771.34;;;13.13;nan
2401;BME280;1211;43.200;27.914;2023-04-05T09:42:48;100775.94;;;14.07;nan
2401;BME280;1211;43.200;27.914;2023-04-05T09:45:16;100776.91;;;14.38;nan
2401;BME280;1211;43.200;27.914;2023-04-05T09:47:52;100773.41;;;14.01;nan
2401;BME280;1211;43.200;27.914;2023-04-05T09:50:19;100788.13;;;14.58;nan
2401;BME280;1211;43.200;27.914;2023-04-05T09:52:46;100785.44;;;13.81;nan
2401;BME280;1211;43.200;27.914;2023-04-05T09:55:13;100790.84;;;13.90;nan
2401;BME280;1211;43.200;27.914;2023-04-05T09:57:40;100793.28;;;13.79;nan
2401;BME280;1211;43.200;27.914;2023-04-05T10:00:17;100792.44;;;14.03;nan
2401;BME280;1211;43.200;27.914;2023-04-05T10:02:44;100794.38;;;14.15;nan
2401;BME280;1211;43.200;27.914;2023-04-05T10:05:13;100789.09;;;14.50;nan
2401;BME280;1211;43.200;27.914;2023-04-05T10:07:40;100777.09;;;14.73;nan
2401;BME280;1211;43.200;27.914;2023-04-05T10:10:07;100782.69;;;15.68;nan
2401;BME280;1211;43.200;27.914;2023-04-05T10:12:34;100785.31;;;16.30;nan
2401;BME280;1211;43.200;27.914;2023-04-05T10:15:03;100788.38;;;16.83;nan
2401;BME280;1211;43.200;27.914;2023-04-05T10:17:33;100783.72;;;16.87;nan
2401;BME280;1211;43.200;27.914;2023-04-05T10:20:08;100785.44;;;16.95;nan
2401;BME280;1211;43.200;27.914;2023-04-05T10:22:35;100799.16;;;16.65;nan
2401;BME280;1211;43.200;27.914;2023-04-05T10:25:04;100796.44;;;16.88;nan
2401;BME280;1211;43.200;27.914;2023-04-05T10:27:32;100798.09;;;16.16;nan
2401;BME280;1211;43.200;27.914;2023-04-05T10:30:04;100793.63;;;15.76;nan
2401;BME280;1211;43.200;27.914;2023-04-05T10:35:29;100795.97;;;15.58;nan
2401;BME280;1211;43.200;27.914;2023-04-05T10:38:01;100805.00;;;15.40;nan
2401;BME280;1211;43.200;27.914;2023-04-05T10:40:31;100802.31;;;15.75;nan
2401;BME280;1211;43.200;27.914;2023-04-05T10:42:58;100803.84;;;15.56;nan
2401;BME280;1211;43.200;27.914;2023-04-05T10:45:26;100811.97;;;15.02;nan
2401;BME280;1211;43.200;27.914;2023-04-05T10:47:54;100802.50;;;14.75;nan
2401;BME280;1211;43.200;27.914;2023-04-05T10:50:23;100808.63;;;14.41;nan
2401;BME280;1211;43.200;27.914;2023-04-05T10:52:51;100809.00;;;14.27;nan
2401;BME280;1211;43.200;27.914;2023-04-05T10:55:18;100815.56;;;14.35;nan
2401;BME280;1211;43.200;27.914;2023-04-05T10:57:45;100809.09;;;14.31;nan
2401;BME280;1211;43.200;27.914;2023-04-05T11:00:14;100810.00;;;14.47;nan
2401;BME280;1211;43.200;27.914;2023-04-05T11:02:41;100804.13;;;14.36;nan
2401;BME280;1211;43.200;27.914;2023-04-05T11:07:51;100805.41;;;14.51;nan
2401;BME280;1211;43.200;27.914;2023-04-05T11:10:20;100811.81;;;14.15;nan
2401;BME280;1211;43.200;27.914;2023-04-05T11:13:05;100821.84;;;14.08;nan
2401;BME280;1211;43.200;27.914;2023-04-05T11:15:33;100818.19;;;14.83;nan
2401;BME280;1211;43.200;27.914;2023-04-05T11:18:03;100821.09;;;15.50;nan
2401;BME280;1211;43.200;27.914;2023-04-05T11:20:43;100819.72;;;15.72;nan
2401;BME280;1211;43.200;27.914;2023-04-05T11:23:12;100818.22;;;15.15;nan
2401;BME280;1211;43.200;27.914;2023-04-05T11:25:40;100819.72;;;14.41;nan
2401;BME280;1211;43.200;27.914;2023-04-05T11:28:20;100825.72;;;14.31;nan
2401;BME280;1211;43.200;27.914;2023-04-05T11:30:48;100823.22;;;14.26;nan
2401;BME280;1211;43.200;27.914;2023-04-05T11:36:00;100818.59;;;15.13;nan
2401;BME280;1211;43.200;27.914;2023-04-05T11:38:29;100817.19;;;15.35;nan
2401;BME280;1211;43.200;27.914;2023-04-05T11:41:04;100816.19;;;15.27;nan
2401;BME280;1211;43.200;27.914;2023-04-05T11:43:31;100819.41;;;15.30;nan
2401;BME280;1211;43.200;27.914;2023-04-05T11:46:01;100817.66;;;14.94;nan
2401;BME280;1211;43.200;27.914;2023-04-05T11:48:28;100819.25;;;14.79;nan
2401;BME280;1211;43.200;27.914;2023-04-05T11:50:54;100819.41;;;14.86;nan
2401;BME280;1211;43.200;27.914;2023-04-05T11:53:22;100826.22;;;14.21;nan
2401;BME280;1211;43.200;27.914;2023-04-05T11:55:50;100815.72;;;14.14;nan
2401;BME280;1211;43.200;27.914;2023-04-05T11:58:18;100824.06;;;14.54;nan
2401;BME280;1211;43.200;27.914;2023-04-05T12:00:45;100824.13;;;14.30;nan
2401;BME280;1211;43.200;27.914;2023-04-05T12:03:12;100825.53;;;14.12;nan
2401;BME280;1211;43.200;27.914;2023-04-05T12:05:46;100819.03;;;14.32;nan
2401;BME280;1211;43.200;27.914;2023-04-05T12:08:12;100824.38;;;14.65;nan
2401;BME280;1211;43.200;27.914;2023-04-05T12:10:39;100819.59;;;14.77;nan
2401;BME280;1211;43.200;27.914;2023-04-05T12:13:07;100819.69;;;15.40;nan
2401;BME280;1211;43.200;27.914;2023-04-05T12:15:35;100811.69;;;16.21;nan
2401;BME280;1211;43.200;27.914;2023-04-05T12:18:02;100807.78;;;15.55;nan
2401;BME280;1211;43.200;27.914;2023-04-05T12:20:29;100813.16;;;15.80;nan
2401;BME280;1211;43.200;27.914;2023-04-05T12:22:57;100815.75;;;15.41;nan
2401;BME280;1211;43.200;27.914;2023-04-05T12:25:24;100804.59;;;15.53;nan
2401;BME280;1211;43.200;27.914;2023-04-05T12:27:51;100811.25;;;15.05;nan
2401;BME280;1211;43.200;27.914;2023-04-05T12:30:20;100806.34;;;15.61;nan
2401;BME280;1211;43.200;27.914;2023-04-05T12:32:47;100794.97;;;15.82;nan
2401;BME280;1211;43.200;27.914;2023-04-05T12:35:16;100800.50;;;15.04;nan
2401;BME280;1211;43.200;27.914;2023-04-05T12:37:43;100797.28;;;15.17;nan
2401;BME280;1211;43.200;27.914;2023-04-05T12:40:10;100801.88;;;15.41;nan
2401;BME280;1211;43.200;27.914;2023-04-05T12:42:37;100817.88;;;15.16;nan
2401;BME280;1211;43.200;27.914;2023-04-05T12:45:05;100801.50;;;15.27;nan
2401;BME280;1211;43.200;27.914;2023-04-05T12:47:34;100803.16;;;15.59;nan
2401;BME280;1211;43.200;27.914;2023-04-05T12:50:11;100803.72;;;16.00;nan
2401;BME280;1211;43.200;27.914;2023-04-05T12:52:37;100803.91;;;14.97;nan
2401;BME280;1211;43.200;27.914;2023-04-05T12:55:13;100801.69;;;15.81;nan
2401;BME280;1211;43.200;27.914;2023-04-05T12:57:39;100804.00;;;15.95;nan
2401;BME280;1211;43.200;27.914;2023-04-05T13:00:07;100806.38;;;15.96;nan
2401;BME280;1211;43.200;27.914;2023-04-05T13:02:36;100796.50;;;15.64;nan
2401;BME280;1211;43.200;27.914;2023-04-05T13:05:03;100793.97;;;15.75;nan
2401;BME280;1211;43.200;27.914;2023-04-05T13:07:30;100797.31;;;15.64;nan
2401;BME280;1211;43.200;27.914;2023-04-05T13:09:56;100802.13;;;15.83;nan
2401;BME280;1211;43.200;27.914;2023-04-05T13:12:23;100801.63;;;16.32;nan
2401;BME280;1211;43.200;27.914;2023-04-05T13:14:50;100788.66;;;16.59;nan
2401;BME280;1211;43.200;27.914;2023-04-05T13:17:16;100790.09;;;15.95;nan
2401;BME280;1211;43.200;27.914;2023-04-05T13:19:44;100789.00;;;15.99;nan
2401;BME280;1211;43.200;27.914;2023-04-05T13:22:11;100789.69;;;16.12;nan
2401;BME280;1211;43.200;27.914;2023-04-05T13:24:38;100785.94;;;16.04;nan
2401;BME280;1211;43.200;27.914;2023-04-05T13:27:04;100801.16;;;15.76;nan
2401;BME280;1211;43.200;27.914;2023-04-05T13:29:31;100802.44;;;15.03;nan
2401;BME280;1211;43.200;27.914;2023-04-05T13:31:58;100800.78;;;15.30;nan
2401;BME280;1211;43.200;27.914;2023-04-05T13:34:24;100802.84;;;15.49;nan
2401;BME280;1211;43.200;27.914;2023-04-05T13:36:53;100799.19;;;15.13;nan
2401;BME280;1211;43.200;27.914;2023-04-05T13:39:19;100789.34;;;15.47;nan
2401;BME280;1211;43.200;27.914;2023-04-05T13:41:46;100793.91;;;15.55;nan